Round Pond, Maine
Current Conditions -  °F | °C
As of 10:53 PM on Saturday 22 Nov 2014 (Local Time) from KIWI Reporting Station
Clear Clear  
Wind Chill: 33°   Ceiling: Unl
Heat Index: 39°   Visibility: 10mi
Dew Point: 15°   Wind: 8mph
Humidity: 38%   Direction: 240°WSW
Pressure: 29.97"   Gusts: NA
Location:  43.95°N, 69.46°W
Report Text: KIWI 230353Z AUTO 24007KT 200V260 10SM CLR 04/M09 A2997 RMK AO2 SLP148 T00391094
Loading
Personal Weather Stations






























Interactive Weather Map New forecast layout! Learn more

10-Day Weather Forecast

Advertisements
Track Severe Weather on mobile